createdAt,value
2022-10-28T00:05:25.283Z,100
2022-10-28T00:11:25.301Z,100
2022-10-28T00:17:25.265Z,100
2022-10-28T00:23:25.272Z,99.7
2022-10-28T00:29:25.282Z,99.2
2022-10-28T00:35:25.280Z,99.1
2022-10-28T00:41:25.241Z,98.6
2022-10-28T00:47:25.336Z,97.7
2022-10-28T00:53:25.256Z,97.1
2022-10-28T00:59:25.270Z,95.5
2022-10-28T01:05:25.292Z,95.3
2022-10-28T01:11:25.268Z,93.6
2022-10-28T01:17:25.254Z,93.7
2022-10-28T01:23:25.278Z,93.2
2022-10-28T01:29:25.284Z,94.1
2022-10-28T01:35:25.493Z,93.1
2022-10-28T01:41:25.328Z,92.7
2022-10-28T01:47:25.270Z,92.8
2022-10-28T01:53:25.263Z,93
2022-10-28T01:59:25.312Z,92.8
2022-10-28T02:05:25.286Z,91.7
2022-10-28T02:11:25.274Z,91.5
2022-10-28T02:17:25.280Z,91.6
2022-10-28T02:23:25.310Z,92.1
2022-10-28T02:29:25.294Z,90.5
2022-10-28T02:35:25.285Z,89.5
2022-10-28T02:41:25.317Z,89.1
2022-10-28T02:47:25.268Z,88.3
2022-10-28T02:59:25.274Z,89.4
2022-10-28T03:05:25.291Z,89.8
2022-10-28T03:11:25.294Z,88.5
2022-10-28T03:17:25.257Z,89
2022-10-28T03:23:25.292Z,89.5
2022-10-28T03:29:25.291Z,90.5
2022-10-28T03:35:25.277Z,91.5
2022-10-28T03:41:25.300Z,92.2
2022-10-28T03:47:25.290Z,92.5
2022-10-28T03:53:27.717Z,93.3
2022-10-28T03:59:25.297Z,93.6
2022-10-28T04:05:25.318Z,94.3
2022-10-28T04:11:25.321Z,95.7
2022-10-28T04:17:25.273Z,96.1
2022-10-28T04:23:25.304Z,96.6
2022-10-28T04:29:25.300Z,96.2
2022-10-28T04:35:25.287Z,95.9
2022-10-28T04:41:25.331Z,96.8
2022-10-28T04:47:25.286Z,96.5
2022-10-28T04:53:25.302Z,97.1
2022-10-28T04:59:25.318Z,96.8
2022-10-28T05:05:25.300Z,96.3
2022-10-28T05:11:25.330Z,96.2
2022-10-28T05:17:25.335Z,95.9
2022-10-28T05:23:27.277Z,95.8
2022-10-28T05:29:28.592Z,95.4
2022-10-28T05:35:25.329Z,95
2022-10-28T05:41:25.307Z,94.3
2022-10-28T05:47:25.319Z,95.8
2022-10-28T05:53:25.328Z,95
2022-10-28T05:59:25.312Z,95.3
2022-10-28T06:05:25.306Z,94.2
2022-10-28T06:11:23.794Z,92.5
2022-10-28T06:17:23.775Z,92.2
2022-10-28T06:23:23.776Z,91
2022-10-28T06:29:23.819Z,91.1
2022-10-28T06:35:23.792Z,89.9
2022-10-28T06:41:23.827Z,89.7
2022-10-28T06:47:25.344Z,89.6
2022-10-28T06:53:25.308Z,89.1
2022-10-28T06:59:25.319Z,88.8
2022-10-28T07:05:25.358Z,88.3
2022-10-28T07:11:25.343Z,88.7
2022-10-28T07:17:25.358Z,88.9
2022-10-28T07:23:25.372Z,88.4
2022-10-28T07:29:25.364Z,87.4
2022-10-28T07:35:25.363Z,86.8
2022-10-28T07:41:25.411Z,85.2
2022-10-28T07:47:25.381Z,84.8
2022-10-28T07:53:28.600Z,84
2022-10-28T07:59:26.823Z,83.1
2022-10-28T08:05:25.349Z,82
2022-10-28T08:11:25.359Z,81.6
2022-10-28T08:17:25.361Z,81.7
2022-10-28T08:23:25.320Z,81.1
2022-10-28T08:29:29.126Z,79.2
2022-10-28T08:35:25.369Z,77.1
2022-10-28T08:41:25.362Z,76.7
2022-10-28T08:47:25.337Z,78.1
2022-10-28T08:53:25.370Z,78
2022-10-28T08:59:25.349Z,77.4
2022-10-28T09:05:25.332Z,75.6
2022-10-28T09:11:26.463Z,73.7
2022-10-28T09:17:25.348Z,70.9
2022-10-28T09:23:25.343Z,68.8
2022-10-28T09:29:25.371Z,62.1
2022-10-28T09:35:25.352Z,57
2022-10-28T09:41:25.377Z,60.5
2022-10-28T09:47:25.378Z,58
2022-10-28T09:53:25.365Z,58.4
2022-10-28T09:59:25.334Z,59.5
2022-10-28T10:05:25.368Z,58.1
2022-10-28T10:11:25.366Z,64.7
2022-10-28T10:17:25.355Z,64.6
2022-10-28T10:23:25.422Z,58.1
2022-10-28T10:29:25.380Z,54.8
2022-10-28T10:35:25.378Z,61.2
2022-10-28T10:41:25.439Z,62.8
2022-10-28T10:47:25.382Z,64.1
2022-10-28T10:53:25.353Z,65.6
2022-10-28T10:59:25.405Z,65.8
2022-10-28T11:05:29.137Z,64.3
2022-10-28T11:11:25.394Z,64.5
2022-10-28T11:17:25.491Z,63.3
2022-10-28T11:23:25.374Z,62.8
2022-10-28T11:29:25.392Z,60.2
2022-10-28T11:35:25.383Z,60.5
2022-10-28T11:41:25.403Z,60.3
2022-10-28T11:47:25.355Z,59.5
2022-10-28T11:53:25.409Z,59.7
2022-10-28T11:59:25.373Z,61.3
2022-10-28T12:05:25.386Z,61.9
2022-10-28T12:11:25.485Z,59.9
2022-10-28T12:17:25.408Z,57.6
2022-10-28T12:23:25.380Z,54.7
2022-10-28T12:29:25.414Z,58.2
2022-10-28T12:35:25.401Z,57.4
2022-10-28T12:41:25.413Z,56.1
2022-10-28T12:47:25.408Z,55.4
2022-10-28T12:53:25.418Z,57
2022-10-28T12:59:25.385Z,59.5
2022-10-28T13:05:25.411Z,59
2022-10-28T13:11:25.442Z,59.1
2022-10-28T13:17:25.421Z,58.4
2022-10-28T13:23:25.438Z,59
2022-10-28T13:29:25.459Z,61.4
2022-10-28T13:35:25.412Z,61.2
2022-10-28T13:41:25.470Z,60.6
2022-10-28T13:47:25.439Z,62.8
2022-10-28T13:53:25.495Z,61.1
2022-10-28T13:59:25.441Z,60.5
2022-10-28T14:05:25.424Z,60.5
2022-10-28T14:11:25.395Z,59.7
2022-10-28T14:17:25.437Z,60.1
2022-10-28T14:23:25.402Z,61.4
2022-10-28T14:29:25.422Z,61.3
2022-10-28T14:35:25.482Z,62.6
2022-10-28T14:41:25.570Z,60.6
2022-10-28T14:47:25.439Z,62.5
2022-10-28T14:53:25.438Z,61.7
2022-10-28T14:59:25.444Z,63.1
2022-10-28T15:05:25.442Z,64.3
2022-10-28T15:11:25.484Z,62.1
2022-10-28T15:17:25.441Z,62.7
2022-10-28T15:23:25.580Z,64.5
2022-10-28T15:29:25.471Z,63.3
2022-10-28T15:35:25.436Z,64.1
2022-10-28T15:41:25.466Z,66.1
2022-10-28T15:47:25.523Z,66.4
2022-10-28T15:53:25.444Z,66.8
2022-10-28T15:59:25.458Z,68.2
2022-10-28T16:05:27.734Z,70.1
2022-10-28T16:11:25.479Z,70.5
2022-10-28T16:17:25.558Z,71.3
2022-10-28T16:23:25.492Z,70.2
2022-10-28T16:29:25.446Z,70.1
2022-10-28T16:35:25.494Z,71.4
2022-10-28T16:41:25.504Z,70.4
2022-10-28T16:47:25.460Z,70.3
2022-10-28T16:53:25.466Z,70.4
2022-10-28T16:59:25.462Z,71
2022-10-28T17:05:25.486Z,71
2022-10-28T17:11:25.585Z,71.3
2022-10-28T17:17:25.478Z,72.6
2022-10-28T17:23:25.463Z,72
2022-10-28T17:29:25.452Z,72.3
2022-10-28T17:35:25.499Z,73.4
2022-10-28T17:41:25.454Z,73.2
2022-10-28T17:47:25.466Z,71.8
2022-10-28T17:53:25.484Z,73.5
2022-10-28T17:59:25.465Z,74
2022-10-28T18:05:25.498Z,73
2022-10-28T18:11:25.699Z,74.4
2022-10-28T18:17:25.496Z,74.3
2022-10-28T18:23:25.493Z,73.8
2022-10-28T18:29:25.516Z,73.3
2022-10-28T18:35:25.490Z,74.3
2022-10-28T18:41:25.508Z,75
2022-10-28T18:47:25.528Z,75.5
2022-10-28T18:53:25.566Z,75.8
2022-10-28T18:59:25.473Z,77.3
2022-10-28T19:05:25.541Z,77.1
2022-10-28T19:11:25.496Z,76.8
2022-10-28T19:17:25.583Z,77.5
2022-10-28T19:23:25.520Z,77.7
2022-10-28T19:29:25.580Z,76.9
2022-10-28T19:35:25.494Z,78.4
2022-10-28T19:41:25.550Z,79
2022-10-28T19:47:25.491Z,77.7
2022-10-28T19:53:25.507Z,78.3
2022-10-28T19:59:25.514Z,78.9
2022-10-28T20:05:25.503Z,79.5
2022-10-28T20:11:26.672Z,80.9
2022-10-28T20:17:25.543Z,80.3
2022-10-28T20:23:25.487Z,80.1
2022-10-28T20:29:25.507Z,81
2022-10-28T20:35:25.536Z,80.5
2022-10-28T20:41:25.526Z,81.5
2022-10-28T20:47:25.492Z,81
2022-10-28T20:53:25.521Z,79.7
2022-10-28T20:59:25.592Z,80.9
2022-10-28T21:05:25.492Z,81.3
2022-10-28T21:11:25.564Z,80.8
2022-10-28T21:17:25.522Z,81.8
2022-10-28T21:23:25.514Z,81.1
2022-10-28T21:29:25.621Z,80.8
2022-10-28T21:35:25.503Z,80.6
2022-10-28T21:41:25.513Z,81.5
2022-10-28T21:47:25.536Z,83.7
2022-10-28T21:53:25.554Z,83.5
2022-10-28T21:59:25.520Z,83.6
2022-10-28T22:05:25.568Z,83.9
2022-10-28T22:11:25.517Z,84.7
2022-10-28T22:17:25.526Z,86.4
2022-10-28T22:23:25.577Z,86.2
2022-10-28T22:29:25.522Z,86.5
2022-10-28T22:35:25.528Z,87.6
2022-10-28T22:41:25.580Z,87.5
2022-10-28T22:47:25.509Z,88
2022-10-28T22:53:25.521Z,88
2022-10-28T22:59:25.565Z,88.4
2022-10-28T23:05:25.542Z,89
2022-10-28T23:11:25.576Z,89.8
2022-10-28T23:17:25.684Z,89.7
2022-10-28T23:23:25.541Z,90.2
2022-10-28T23:29:25.535Z,90.4
2022-10-28T23:35:25.562Z,91
2022-10-28T23:41:25.576Z,90.9
2022-10-28T23:47:25.549Z,90.3
2022-10-28T23:53:25.643Z,89.9
2022-10-28T23:59:25.550Z,89.9
